LSZB/BRN METAR and TAF weather

Enter ICAO airport designator
Station Type Date Time Source
LSZB METAR 2021/08/01 16:20 UTC NOAA

LSZB 011620Z 29010KT 9999 -RA FEW009 BKN030 15/12 Q1015 NOSIG


Station Type Date Time Source
LSZB Decoded METAR 2021/08/01 16:20 UTC NOAA

Bern / Belp , Switzerland (LSZB) 46-55N 007-30E
Aug 01, 2021 - 12:20 PM EDT / 2021.08.01 1620 UTC
Wind: from the WNW (290 degrees) at 12 MPH (10 KT):0
Visibility: greater than 7 mile(s):0
Sky conditions: mostly cloudy
Weather: light rain
Temperature: 59 F (15 C)
Dew Point: 53 F (12 C)
Relative Humidity: 82%
Pressure (altimeter): 29.97 in. Hg (1015 hPa)
ob: LSZB 011620Z 29010KT 9999 -RA FEW009 BKN030 15/12 Q1015 NOSIG
cycle: 16

Station Type Date Time Source
LSZB TAF 2014/12/22 20:03 UTC NOAA

TAF
AMD TAF
AMD LSZB 222054Z 2220/2224 CNL

Example: see airport list